createdAt,value
2018-05-26T00:02:01.932Z,95942
2018-05-26T00:07:30.112Z,95943
2018-05-26T00:12:58.265Z,95939
2018-05-26T00:18:26.410Z,95939
2018-05-26T00:23:56.298Z,95930
2018-05-26T00:29:25.218Z,95927
2018-05-26T00:34:53.357Z,95938
2018-05-26T00:40:22.336Z,95939
2018-05-26T00:45:50.473Z,95930
2018-05-26T00:51:21.499Z,95935
2018-05-26T00:56:51.452Z,95930
2018-05-26T01:02:22.324Z,95934
2018-05-26T01:07:50.472Z,95930
2018-05-26T01:13:18.604Z,95927
2018-05-26T01:18:46.761Z,95929
2018-05-26T01:24:14.923Z,95933
2018-05-26T01:29:43.829Z,95941
2018-05-26T01:35:11.998Z,95955
2018-05-26T01:40:40.169Z,95944
2018-05-26T01:46:08.332Z,95948
2018-05-26T01:51:37.255Z,95950
2018-05-26T01:57:06.163Z,95962
2018-05-26T02:02:34.313Z,95964
2018-05-26T02:08:02.452Z,95966
2018-05-26T02:13:31.559Z,95970
2018-05-26T02:19:00.740Z,95962
2018-05-26T02:24:28.894Z,95954
2018-05-26T02:29:57.083Z,95942
2018-05-26T02:35:25.236Z,95942
2018-05-26T02:40:53.385Z,95957
2018-05-26T02:46:22.311Z,95957
2018-05-26T02:51:50.448Z,95957
2018-05-26T02:57:19.378Z,95954
2018-05-26T03:02:48.270Z,95954
2018-05-26T03:08:21.963Z,95960
2018-05-26T03:13:56.560Z,95964
2018-05-26T03:19:24.714Z,95962
2018-05-26T03:24:52.857Z,95972
2018-05-26T03:30:21.015Z,95959
2018-05-26T03:35:49.173Z,95959
2018-05-26T03:41:17.329Z,95959
2018-05-26T03:46:45.485Z,95964
2018-05-26T03:52:13.671Z,95970
2018-05-26T03:58:00.480Z,95962
2018-05-26T04:03:28.617Z,95974
2018-05-26T04:08:56.767Z,95971
2018-05-26T04:14:25.722Z,95986
2018-05-26T04:19:54.959Z,95996
2018-05-26T04:25:23.873Z,95991
2018-05-26T04:30:52.034Z,96000
2018-05-26T04:36:20.189Z,95996
2018-05-26T04:41:48.345Z,95995
2018-05-26T04:47:16.509Z,96005
2018-05-26T04:52:44.680Z,96002
2018-05-26T04:58:12.827Z,96000
2018-05-26T05:03:41.751Z,96001
2018-05-26T05:09:10.704Z,96008
2018-05-26T05:14:38.882Z,95989
2018-05-26T05:20:07.031Z,95995
2018-05-26T05:25:35.953Z,96002
2018-05-26T05:31:04.262Z,96001
2018-05-26T05:36:32.425Z,96008
2018-05-26T05:42:00.588Z,96011
2018-05-26T05:47:28.720Z,96006
2018-05-26T05:52:56.869Z,96014
2018-05-26T05:58:25.788Z,96027
2018-05-26T06:03:53.954Z,96025
2018-05-26T06:09:22.097Z,96024
2018-05-26T06:14:50.267Z,96028
2018-05-26T06:20:18.399Z,96032
2018-05-26T06:25:46.553Z,96031
2018-05-26T06:31:14.835Z,96039
2018-05-26T06:36:43.005Z,96045
2018-05-26T06:42:13.190Z,96047
2018-05-26T06:47:41.370Z,96037
2018-05-26T06:53:09.537Z,96042
2018-05-26T06:58:38.014Z,96038
2018-05-26T07:04:06.185Z,96030
2018-05-26T07:09:34.381Z,96041
2018-05-26T07:15:02.644Z,96047
2018-05-26T07:20:31.565Z,96041
2018-05-26T07:25:59.734Z,96043
2018-05-26T07:31:28.073Z,96040
2018-05-26T07:36:56.539Z,96039
2018-05-26T07:42:24.905Z,96048
2018-05-26T07:47:53.253Z,96047
2018-05-26T07:53:21.608Z,96049
2018-05-26T07:58:49.992Z,96047
2018-05-26T08:04:18.415Z,96045
2018-05-26T08:09:46.572Z,96055
2018-05-26T08:15:15.659Z,96056
2018-05-26T08:20:44.629Z,96052
2018-05-26T08:26:12.800Z,96055
2018-05-26T08:31:41.783Z,96052
2018-05-26T08:37:09.954Z,96049
2018-05-26T08:42:38.183Z,96051
2018-05-26T08:48:07.172Z,96056
2018-05-26T08:53:35.336Z,96063
2018-05-26T08:59:03.493Z,96062
2018-05-26T09:04:31.664Z,96068
2018-05-26T09:09:59.820Z,96069
2018-05-26T09:15:27.963Z,96068
2018-05-26T09:20:56.113Z,96058
2018-05-26T09:26:24.290Z,96063
2018-05-26T09:31:53.511Z,96072
2018-05-26T09:37:21.699Z,96067
2018-05-26T09:42:49.877Z,96067
2018-05-26T09:48:18.020Z,96069
2018-05-26T09:53:46.193Z,96079
2018-05-26T09:59:15.106Z,96062
2018-05-26T10:04:43.298Z,96065
2018-05-26T10:10:11.496Z,96066
2018-05-26T10:15:40.675Z,96061
2018-05-26T10:21:08.878Z,96061
2018-05-26T10:26:37.946Z,96052
2018-05-26T10:32:06.960Z,96057
2018-05-26T10:37:35.109Z,96059
2018-05-26T10:43:03.287Z,96055
2018-05-26T10:48:31.439Z,96053
2018-05-26T10:53:59.587Z,96055
2018-05-26T10:59:28.510Z,96057
2018-05-26T11:04:56.770Z,96055
2018-05-26T11:10:24.946Z,96056
2018-05-26T11:16:07.987Z,96061
2018-05-26T11:21:37.672Z,96056
2018-05-26T11:27:05.951Z,96051
2018-05-26T11:32:34.204Z,96051
2018-05-26T11:38:03.509Z,96050
2018-05-26T11:43:31.723Z,96057
2018-05-26T11:49:00.751Z,96048
2018-05-26T11:54:28.947Z,96056
2018-05-26T11:59:57.882Z,96056
2018-05-26T12:05:27.052Z,96061
2018-05-26T12:10:56.052Z,96058
2018-05-26T12:16:24.152Z,96052
2018-05-26T12:21:52.300Z,96054
2018-05-26T12:27:20.459Z,96058
2018-05-26T12:32:48.598Z,96054
2018-05-26T12:38:16.748Z,96055
2018-05-26T12:43:44.894Z,96053
2018-05-26T12:49:18.052Z,96054
2018-05-26T12:54:46.211Z,96051
2018-05-26T13:00:14.372Z,96047
2018-05-26T13:05:43.302Z,96047
2018-05-26T13:11:11.480Z,96059
2018-05-26T13:16:39.664Z,96053
2018-05-26T13:22:08.596Z,96046
2018-05-26T13:27:37.570Z,96034
2018-05-26T13:33:05.718Z,96039
2018-05-26T13:38:34.791Z,96037
2018-05-26T13:44:03.708Z,96035
2018-05-26T13:49:31.884Z,96025
2018-05-26T13:55:00.042Z,96027
2018-05-26T14:00:28.251Z,96028
2018-05-26T14:05:56.395Z,96023
2018-05-26T14:11:24.549Z,96024
2018-05-26T14:16:52.683Z,96017
2018-05-26T14:22:20.826Z,96008
2018-05-26T14:27:49.021Z,95998
2018-05-26T14:33:17.203Z,96005
2018-05-26T14:38:46.200Z,96004
2018-05-26T14:44:14.446Z,95999
2018-05-26T14:49:43.472Z,95981
2018-05-26T14:55:11.687Z,95996
2018-05-26T15:00:39.871Z,95995
2018-05-26T15:06:08.137Z,95992
2018-05-26T15:11:36.352Z,96010
2018-05-26T15:17:04.542Z,96011
2018-05-26T15:22:38.353Z,96011
2018-05-26T15:28:06.476Z,96012
2018-05-26T15:33:34.630Z,96010
2018-05-26T15:39:02.783Z,96004
2018-05-26T15:44:31.112Z,96008
2018-05-26T15:49:59.496Z,96007
2018-05-26T15:55:27.638Z,95999
2018-05-26T16:00:56.603Z,96003
2018-05-26T16:06:24.870Z,96007
2018-05-26T16:11:53.022Z,95993
2018-05-26T16:17:21.199Z,96002
2018-05-26T16:22:54.224Z,96006
2018-05-26T16:28:22.444Z,96006
2018-05-26T16:33:50.597Z,96001
2018-05-26T16:39:18.732Z,96002
2018-05-26T16:44:46.925Z,95999
2018-05-26T16:50:16.098Z,96001
2018-05-26T16:55:44.295Z,96006
2018-05-26T17:01:12.440Z,96011
2018-05-26T17:06:40.600Z,96016
2018-05-26T17:12:08.765Z,96014
2018-05-26T17:17:36.932Z,96009
2018-05-26T17:23:05.106Z,96007
2018-05-26T17:28:33.246Z,96004
2018-05-26T17:34:08.254Z,96017
2018-05-26T17:39:36.446Z,96011
2018-05-26T17:45:04.669Z,96015
2018-05-26T17:50:32.825Z,96015
2018-05-26T17:56:00.981Z,96021
2018-05-26T18:01:29.332Z,96025
2018-05-26T18:06:57.493Z,96025
2018-05-26T18:12:25.657Z,96025
2018-05-26T18:17:53.797Z,96029
2018-05-26T18:23:24.033Z,96021
2018-05-26T18:28:52.634Z,96033
2018-05-26T18:34:20.785Z,96036
2018-05-26T18:39:50.118Z,96044
2018-05-26T18:45:18.317Z,96050
2018-05-26T18:50:47.593Z,96046
2018-05-26T18:56:15.764Z,96042
2018-05-26T19:01:43.934Z,96047
2018-05-26T19:07:12.107Z,96066
2018-05-26T19:12:40.290Z,96064
2018-05-26T19:18:08.525Z,96072
2018-05-26T19:23:36.706Z,96074
2018-05-26T19:29:05.672Z,96070
2018-05-26T19:34:33.880Z,96074
2018-05-26T19:40:02.021Z,96076
2018-05-26T19:45:30.160Z,96075
2018-05-26T19:50:58.309Z,96073
2018-05-26T19:56:27.249Z,96085
2018-05-26T20:01:56.140Z,96078
2018-05-26T20:07:24.428Z,96084
2018-05-26T20:12:52.593Z,96085
2018-05-26T20:18:20.752Z,96092
2018-05-26T20:23:49.714Z,96102
2018-05-26T20:29:20.017Z,96094
2018-05-26T20:34:48.266Z,96097
2018-05-26T20:40:16.487Z,96096
2018-05-26T20:45:45.462Z,96097
2018-05-26T20:51:13.648Z,96097
2018-05-26T20:56:42.749Z,96101
2018-05-26T21:02:10.938Z,96101
2018-05-26T21:07:39.166Z,96099
2018-05-26T21:13:07.712Z,96098
2018-05-26T21:18:36.072Z,96095
2018-05-26T21:24:04.259Z,96099
2018-05-26T21:29:32.497Z,96101
2018-05-26T21:35:01.677Z,96102
2018-05-26T21:40:30.580Z,96108
2018-05-26T21:45:58.759Z,96107
2018-05-26T21:51:26.904Z,96115
2018-05-26T21:56:55.132Z,96116
2018-05-26T22:02:23.284Z,96104
2018-05-26T22:07:52.250Z,96106
2018-05-26T22:13:20.399Z,96118
2018-05-26T22:18:48.581Z,96123
2018-05-26T22:24:17.717Z,96128
2018-05-26T22:29:46.630Z,96125
2018-05-26T22:35:14.816Z,96130
2018-05-26T22:40:42.990Z,96122
2018-05-26T22:46:11.922Z,96118
2018-05-26T22:51:41.895Z,96116
2018-05-26T22:57:10.820Z,96114
2018-05-26T23:02:39.006Z,96102
2018-05-26T23:08:07.185Z,96090
2018-05-26T23:13:36.385Z,96092
2018-05-26T23:19:04.544Z,96080
2018-05-26T23:24:32.708Z,96078
2018-05-26T23:30:00.849Z,96069
2018-05-26T23:35:29.069Z,96058
2018-05-26T23:40:57.220Z,96058
2018-05-26T23:46:26.154Z,96051
2018-05-26T23:51:55.062Z,96055
2018-05-26T23:57:23.232Z,96056
